Time;durP1;ratioP1;P1;durP2;ratioP2;P2;SDS_P1;SDS_P2;PMS_P1;PMS_P2;Temp;Humidity;BMP_temperature;BMP_pressure;BME280_temperature;BME280_humidity;BME280_pressure;Samples;Min_cycle;Max_cycle;Signal;HPM_P1;HPM_P2
2021/10/03 00:02:04;;;;;;;6.13;5.63;;;15.10;97.60;;;;;;5042005;27;21196;-83
2021/10/03 00:04:41;;;;;;;5.63;5.13;;;15.10;98.10;;;;;;5041595;27;20642;-83
2021/10/03 00:07:25;;;;;;;6.37;5.00;;;14.90;98.30;;;;;;5047981;28;20622;-83
2021/10/03 00:10:13;;;;;;;6.80;5.10;;;14.90;98.60;;;;;;5037710;28;20733;-83
2021/10/03 00:12:51;;;;;;;6.00;5.00;;;14.80;98.60;;;;;;5048503;27;20733;-83
2021/10/03 00:15:29;;;;;;;7.37;4.97;;;14.80;98.60;;;;;;5044351;28;21035;-83
2021/10/03 00:18:16;;;;;;;5.70;5.20;;;14.90;98.20;;;;;;5045673;27;20634;-83
2021/10/03 00:20:53;;;;;;;5.97;5.37;;;14.80;98.60;;;;;;5033120;28;20653;-83
2021/10/03 00:23:34;;;;;;;5.27;4.80;;;14.70;98.70;;;;;;5027256;28;20630;-83
2021/10/03 00:26:13;;;;;;;5.70;5.20;;;14.70;97.90;;;;;;5028011;28;20646;-82
2021/10/03 00:28:49;;;;;;;5.23;4.73;;;14.60;98.60;;;;;;5027397;28;20619;-83
2021/10/03 00:31:25;;;;;;;7.20;5.20;;;14.60;98.60;;;;;;5028054;28;20631;-83
2021/10/03 00:33:59;;;;;;;6.30;5.80;;;14.70;98.90;;;;;;5034840;28;20643;-82
2021/10/03 00:36:33;;;;;;;4.80;4.30;;;14.50;98.90;;;;;;5033317;28;20650;-83
2021/10/03 00:39:13;;;;;;;5.17;4.67;;;14.50;99.10;;;;;;5028612;28;21438;-83
2021/10/03 00:41:51;;;;;;;5.47;4.90;;;14.50;98.70;;;;;;5047794;28;20618;-83
2021/10/03 00:44:38;;;;;;;6.87;4.73;;;14.50;98.90;;;;;;5036531;28;20634;-83
2021/10/03 00:47:24;;;;;;;6.10;5.50;;;14.60;98.50;;;;;;5044894;28;20634;-83
2021/10/03 00:50:14;;;;;;;5.70;5.20;;;14.60;98.20;;;;;;5046015;28;21197;-83
2021/10/03 00:52:52;;;;;;;6.50;5.60;;;14.50;98.50;;;;;;5035708;28;21254;-83
2021/10/03 00:55:34;;;;;;;5.60;5.00;;;14.70;99.10;;;;;;5042837;28;20630;-83
2021/10/03 00:58:21;;;;;;;5.50;5.00;;;14.50;98.80;;;;;;5026103;28;20603;-83
2021/10/03 01:00:54;;;;;;;7.00;5.90;;;14.60;98.30;;;;;;5028670;28;20651;-83
2021/10/03 01:03:36;;;;;;;6.53;5.93;;;14.60;98.50;;;;;;5044220;27;20622;-83
2021/10/03 01:06:13;;;;;;;5.97;5.47;;;14.90;99.90;;;;;;5027519;28;20639;-82
2021/10/03 01:08:55;;;;;;;6.17;5.57;;;14.60;98.40;;;;;;5031781;28;20626;-82
2021/10/03 01:11:30;;;;;;;5.60;5.10;;;14.70;98.60;;;;;;5031107;28;20630;-83
2021/10/03 01:14:07;;;;;;;5.07;4.57;;;14.60;98.10;;;;;;5039386;28;20623;-82
2021/10/03 01:16:38;;;;;;;5.37;4.90;;;14.70;97.90;;;;;;5020853;28;20643;-83
2021/10/03 01:19:22;;;;;;;5.20;4.30;;;14.70;98.10;;;;;;5037269;28;21262;-83
2021/10/03 01:21:57;;;;;;;5.43;4.80;;;14.60;98.50;;;;;;5044211;28;20660;-83
2021/10/03 01:24:44;;;;;;;6.00;5.40;;;14.60;98.30;;;;;;5032416;28;20631;-82
2021/10/03 01:27:23;;;;;;;5.93;5.43;;;14.70;97.90;;;;;;5026517;28;20631;-82
2021/10/03 01:30:13;;;;;;;6.30;5.50;;;14.70;98.30;;;;;;5032779;27;21227;-82
2021/10/03 01:33:00;;;;;;;5.90;5.10;;;14.70;98.40;;;;;;5041725;28;20648;-82
2021/10/03 01:35:39;;;;;;;5.13;4.70;;;14.70;98.80;;;;;;5043066;27;21598;-82
2021/10/03 01:38:19;;;;;;;5.57;5.07;;;14.70;98.60;;;;;;5037950;28;20982;-83
2021/10/03 01:41:04;;;;;;;6.60;5.80;;;15.00;99.00;;;;;;5043989;28;20696;-82
2021/10/03 01:43:40;;;;;;;5.80;5.20;;;14.70;98.60;;;;;;5042666;28;20722;-82
2021/10/03 01:46:21;;;;;;;5.43;4.93;;;14.80;98.40;;;;;;5045299;28;20627;-82
2021/10/03 01:48:55;;;;;;;6.07;5.50;;;14.90;98.80;;;;;;5041386;28;20638;-83
2021/10/03 01:51:29;;;;;;;5.20;4.80;;;14.90;97.60;;;;;;5027203;28;20998;-82
2021/10/03 01:54:09;;;;;;;5.57;4.90;;;14.90;97.30;;;;;;5043014;28;21605;-82
2021/10/03 01:56:43;;;;;;;6.43;5.10;;;15.00;96.90;;;;;;5026393;28;20600;-82
2021/10/03 01:59:18;;;;;;;6.07;5.47;;;15.00;97.40;;;;;;5031393;28;20682;-82
2021/10/03 02:01:54;;;;;;;5.73;5.17;;;15.00;97.90;;;;;;5036965;28;20674;-82
2021/10/03 02:04:32;;;;;;;5.57;5.07;;;14.90;97.70;;;;;;5033402;28;20638;-82
2021/10/03 02:07:08;;;;;;;5.50;5.00;;;14.90;98.00;;;;;;5045738;28;20642;-82
2021/10/03 02:09:43;;;;;;;5.50;5.00;;;15.00;97.40;;;;;;5029746;28;20652;-82
2021/10/03 02:12:24;;;;;;;5.20;4.70;;;15.10;97.20;;;;;;5046161;28;20622;-82
2021/10/03 02:14:57;;;;;;;8.00;4.90;;;14.90;97.50;;;;;;5026017;28;20632;-82
2021/10/03 02:17:36;;;;;;;6.60;4.63;;;14.80;97.60;;;;;;5026333;28;20603;-82
2021/10/03 02:20:20;;;;;;;5.40;4.97;;;14.80;98.10;;;;;;5036557;27;20694;-82
2021/10/03 02:22:54;;;;;;;4.83;4.43;;;14.70;97.40;;;;;;5045284;28;20635;-82
2021/10/03 02:25:32;;;;;;;5.97;5.37;;;14.80;97.60;;;;;;5031609;28;20680;-82
2021/10/03 02:28:11;;;;;;;5.80;5.20;;;14.80;97.40;;;;;;5034866;28;20626;-82
2021/10/03 02:30:58;;;;;;;4.90;4.50;;;14.90;97.40;;;;;;5041838;28;20646;-82
2021/10/03 02:33:35;;;;;;;5.37;4.40;;;15.00;97.10;;;;;;5027237;28;20621;-82
2021/10/03 02:36:20;;;;;;;5.60;5.10;;;15.00;96.80;;;;;;5027831;28;20662;-82
2021/10/03 02:39:02;;;;;;;6.77;5.10;;;15.10;96.90;;;;;;5032174;28;21189;-82
2021/10/03 02:41:49;;;;;;;5.50;5.00;;;15.10;96.90;;;;;;5026386;28;20642;-82
2021/10/03 02:44:31;;;;;;;5.13;4.63;;;14.90;97.80;;;;;;5044867;28;20622;-82
2021/10/03 02:47:12;;;;;;;6.20;5.60;;;14.90;97.40;;;;;;5044169;28;20991;-82
2021/10/03 02:49:56;;;;;;;5.87;4.83;;;14.90;97.10;;;;;;5046966;28;20638;-82
2021/10/03 02:52:43;;;;;;;4.50;4.10;;;14.80;97.40;;;;;;5034698;28;21061;-82
2021/10/03 02:55:19;;;;;;;5.50;5.00;;;15.40;97.50;;;;;;5036302;28;20736;-82
2021/10/03 02:58:03;;;;;;;5.80;5.23;;;14.90;97.40;;;;;;5029213;28;20630;-82
2021/10/03 03:00:42;;;;;;;5.17;4.77;;;14.70;98.00;;;;;;5036633;28;20682;-82
2021/10/03 03:03:25;;;;;;;5.00;4.50;;;14.50;98.40;;;;;;5032910;28;20638;-82
2021/10/03 03:06:13;;;;;;;7.17;5.07;;;14.40;98.70;;;;;;5045053;28;21241;-82
2021/10/03 03:08:51;;;;;;;6.37;5.07;;;14.40;98.60;;;;;;5031105;28;20697;-82
2021/10/03 03:11:31;;;;;;;5.07;4.67;;;14.40;98.70;;;;;;5049074;27;20756;-82
2021/10/03 03:14:16;;;;;;;6.27;4.90;;;14.20;99.00;;;;;;5046727;28;20643;-82
2021/10/03 03:17:15;;;;;;;5.10;4.67;;;14.20;98.70;;;;;;5046587;28;20608;-82
2021/10/03 03:20:03;;;;;;;4.57;4.20;;;14.40;98.00;;;;;;5029653;27;20670;-82
2021/10/03 03:22:50;;;;;;;7.83;4.80;;;14.30;98.10;;;;;;5049241;28;20722;-82
2021/10/03 03:25:37;;;;;;;5.27;4.73;;;14.30;98.40;;;;;;5035621;28;20646;-81
2021/10/03 03:28:24;;;;;;;6.50;4.60;;;14.30;98.10;;;;;;5027530;28;20645;-82
2021/10/03 03:31:12;;;;;;;5.80;5.20;;;14.30;97.70;;;;;;5028938;28;20718;-82
2021/10/03 03:33:59;;;;;;;4.80;4.33;;;14.20;97.90;;;;;;5045736;28;20714;-82
2021/10/03 03:36:34;;;;;;;6.07;5.43;;;14.30;97.70;;;;;;5030187;27;20634;-82
2021/10/03 03:39:21;;;;;;;4.80;4.27;;;14.30;98.10;;;;;;5036606;28;20713;-82
2021/10/03 03:41:56;;;;;;;5.60;4.57;;;14.30;97.70;;;;;;5042597;28;20738;-81
2021/10/03 03:44:43;;;;;;;10.13;5.40;;;14.40;97.80;;;;;;5035195;28;20650;-82
2021/10/03 03:47:24;;;;;;;4.57;4.17;;;14.50;96.90;;;;;;5028320;28;20631;-82
2021/10/03 03:50:05;;;;;;;6.37;4.50;;;14.30;97.60;;;;;;5040187;28;21264;-82
2021/10/03 03:52:50;;;;;;;5.50;5.00;;;14.40;97.60;;;;;;5034322;27;20630;-81
2021/10/03 03:55:37;;;;;;;5.67;5.17;;;14.40;99.90;;;;;;5028932;28;21211;-82
2021/10/03 03:58:24;;;;;;;4.80;4.40;;;14.40;97.40;;;;;;5038181;28;20676;-82
2021/10/03 04:01:11;;;;;;;5.77;5.10;;;14.40;97.40;;;;;;5039575;28;20661;-82
2021/10/03 04:03:52;;;;;;;6.20;4.87;;;14.20;98.10;;;;;;5048299;28;20644;-82
2021/10/03 04:06:39;;;;;;;5.30;4.20;;;14.30;97.60;;;;;;5038290;28;21130;-82
2021/10/03 04:09:15;;;;;;;5.10;4.57;;;14.20;97.20;;;;;;5041297;28;20646;-82
2021/10/03 04:12:00;;;;;;;4.77;4.37;;;14.20;98.20;;;;;;5034331;28;20626;-82
2021/10/03 04:14:42;;;;;;;5.17;4.77;;;14.10;97.90;;;;;;5046926;28;20634;-82
2021/10/03 04:17:29;;;;;;;6.30;4.37;;;14.10;98.10;;;;;;5028009;28;20623;-82
2021/10/03 04:20:17;;;;;;;4.70;4.30;;;14.10;97.80;;;;;;5043411;28;20678;-82
2021/10/03 04:23:04;;;;;;;3.97;3.67;;;14.00;98.30;;;;;;5033381;28;20651;-82
2021/10/03 04:25:40;;;;;;;6.03;4.80;;;13.90;98.20;;;;;;5036026;28;20641;-81
2021/10/03 04:28:27;;;;;;;6.93;4.53;;;14.10;96.60;;;;;;5034395;27;20659;-82
2021/10/03 04:31:14;;;;;;;5.30;4.80;;;14.10;97.10;;;;;;5026634;28;20633;-82
2021/10/03 04:34:01;;;;;;;5.60;5.10;;;14.10;99.90;;;;;;5028225;28;20753;-81
2021/10/03 04:36:35;;;;;;;9.00;4.60;;;;;;;;;;5047069;28;20976;-82
2021/10/03 04:39:18;;;;;;;4.53;4.13;;;14.20;96.80;;;;;;5041468;28;20638;-82
2021/10/03 04:41:59;;;;;;;4.80;4.40;;;14.10;97.30;;;;;;5027022;28;21151;-81
2021/10/03 04:44:43;;;;;;;6.00;5.40;;;14.20;97.40;;;;;;5034490;28;20742;-81
2021/10/03 04:47:25;;;;;;;9.27;5.90;;;14.30;97.20;;;;;;5040303;28;20725;-82
2021/10/03 04:50:08;;;;;;;5.47;4.63;;;14.20;97.60;;;;;;5041629;28;20623;-81
2021/10/03 04:52:54;;;;;;;6.77;4.20;;;14.30;97.00;;;;;;5030181;28;20623;-82
2021/10/03 04:55:41;;;;;;;5.17;4.70;;;14.30;95.50;;;;;;5034276;27;21451;-82
2021/10/03 04:58:27;;;;;;;5.30;3.50;;;14.20;96.10;;;;;;5030912;28;20717;-82
2021/10/03 05:01:09;;;;;;;4.43;4.03;;;14.00;99.90;;;;;;5034251;28;21010;-81
2021/10/03 05:03:54;;;;;;;4.67;4.20;;;14.20;96.30;;;;;;5046033;28;20633;-81
2021/10/03 05:06:39;;;;;;;6.53;3.60;;;14.20;95.30;;;;;;5027118;28;20623;-82
2021/10/03 05:09:22;;;;;;;5.23;4.50;;;14.00;99.90;;;;;;5032741;28;20970;-82
2021/10/03 05:12:03;;;;;;;9.53;4.67;;;14.00;96.80;;;;;;5028707;28;21007;-82
2021/10/03 05:14:48;;;;;;;4.20;3.80;;;;;;;;;;5031230;28;21110;-82
2021/10/03 05:17:34;;;;;;;5.30;4.23;;;14.30;94.80;;;;;;5026707;28;20662;-82
2021/10/03 05:20:21;;;;;;;4.67;4.27;;;14.30;95.40;;;;;;5026667;28;20659;-82
2021/10/03 05:22:58;;;;;;;7.83;6.07;;;14.30;95.50;;;;;;5029416;28;20631;-82
2021/10/03 05:25:36;;;;;;;7.70;5.67;;;14.40;95.80;;;;;;5039527;28;20637;-82
2021/10/03 05:28:22;;;;;;;12.73;7.20;;;14.40;96.20;;;;;;5036844;28;20611;-82
2021/10/03 05:30:56;;;;;;;7.33;5.70;;;14.20;96.50;;;;;;5035245;28;20626;-82
2021/10/03 05:33:41;;;;;;;7.20;6.50;;;14.20;96.30;;;;;;5033870;28;20749;-82
2021/10/03 05:36:28;;;;;;;8.80;5.23;;;14.30;96.70;;;;;;5034596;28;20603;-81
2021/10/03 05:39:00;;;;;;;6.43;4.90;;;14.40;96.00;;;;;;5030324;28;20663;-82
2021/10/03 05:41:41;;;;;;;5.00;4.60;;;14.40;95.70;;;;;;5035639;28;20673;-82
2021/10/03 05:44:25;;;;;;;5.27;4.77;;;14.30;96.20;;;;;;5034004;28;21042;-82
2021/10/03 05:47:06;;;;;;;4.97;4.47;;;14.50;95.90;;;;;;5034470;27;20683;-82
2021/10/03 05:49:52;;;;;;;4.80;4.30;;;14.30;95.50;;;;;;5033683;27;20756;-82
2021/10/03 05:52:39;;;;;;;6.87;4.83;;;14.40;95.20;;;;;;5035276;28;20723;-82
2021/10/03 05:55:27;;;;;;;4.80;4.40;;;14.50;95.70;;;;;;5033686;28;20658;-83
2021/10/03 05:58:15;;;;;;;4.87;4.47;;;14.40;95.70;;;;;;5034222;27;20622;-82
2021/10/03 06:01:01;;;;;;;5.10;4.60;;;14.50;95.50;;;;;;5034536;28;21211;-83
2021/10/03 06:03:48;;;;;;;4.37;3.97;;;14.50;95.50;;;;;;5034912;28;21000;-83
2021/10/03 06:06:25;;;;;;;4.93;3.90;;;14.40;95.30;;;;;;5033678;28;20639;-82
2021/10/03 06:09:12;;;;;;;5.10;4.60;;;14.50;95.70;;;;;;5034813;28;20680;-82
2021/10/03 06:11:59;;;;;;;5.70;5.03;;;14.60;95.40;;;;;;5035751;27;20654;-82
2021/10/03 06:14:47;;;;;;;5.90;4.50;;;14.40;95.40;;;;;;5033894;28;20722;-82
2021/10/03 06:17:26;;;;;;;4.70;4.30;;;14.50;94.60;;;;;;5035181;28;20621;-82
2021/10/03 06:20:00;;;;;;;4.60;4.20;;;14.50;95.40;;;;;;5034317;27;20630;-82
2021/10/03 06:22:47;;;;;;;5.00;4.50;;;14.40;95.30;;;;;;5033622;28;21066;-82
2021/10/03 06:25:34;;;;;;;6.20;5.00;;;14.50;95.70;;;;;;5033555;28;20633;-82
2021/10/03 06:28:21;;;;;;;4.43;4.03;;;;;;;;;;5033490;28;20647;-82
2021/10/03 06:31:09;;;;;;;4.30;3.93;;;14.70;95.00;;;;;;5034247;27;20604;-82
2021/10/03 06:33:48;;;;;;;4.57;4.17;;;14.80;94.20;;;;;;5033555;28;20627;-82
2021/10/03 06:36:35;;;;;;;4.93;3.63;;;16.30;94.00;;;;;;5022086;28;20634;-82
2021/10/03 06:39:23;;;;;;;5.20;4.70;;;15.20;94.00;;;;;;5033204;28;20617;-82
2021/10/03 06:42:10;;;;;;;7.30;4.33;;;15.20;93.80;;;;;;5035483;28;20686;-81
2021/10/03 06:44:57;;;;;;;4.07;3.63;;;15.60;93.70;;;;;;5025908;28;20700;-82
2021/10/03 06:47:45;;;;;;;3.93;3.63;;;16.80;92.80;;;;;;5027773;28;21188;-81
2021/10/03 06:50:33;;;;;;;4.60;4.20;;;15.60;94.40;;;;;;5031059;27;20742;-82
2021/10/03 06:53:19;;;;;;;3.73;3.43;;;15.60;94.60;;;;;;5027691;28;20623;-82
2021/10/03 06:55:56;;;;;;;3.73;3.43;;;15.70;93.20;;;;;;5030297;28;20623;-82
2021/10/03 06:58:36;;;;;;;3.90;3.60;;;15.80;94.00;;;;;;5027341;28;20733;-82
2021/10/03 07:01:19;;;;;;;4.60;4.17;;;15.80;95.80;;;;;;5031247;28;20778;-82
2021/10/03 07:04:07;;;;;;;4.90;4.40;;;;;;;;;;5032703;28;21166;-82
2021/10/03 07:06:50;;;;;;;5.10;4.70;;;15.90;93.70;;;;;;5034855;27;20647;-82
2021/10/03 07:09:37;;;;;;;5.20;4.70;;;16.00;93.40;;;;;;5037386;28;20739;-82
2021/10/03 07:12:24;;;;;;;5.10;4.63;;;15.90;95.50;;;;;;5036175;27;20643;-82
2021/10/03 07:15:09;;;;;;;4.73;4.30;;;15.90;94.60;;;;;;5030149;28;21067;-83
2021/10/03 07:17:53;;;;;;;5.78;4.57;;;16.00;93.60;;;;;;5034707;28;20883;-82
2021/10/03 07:20:49;;;;;;;4.43;4.03;;;16.00;93.10;;;;;;5036072;28;20238;-83
2021/10/03 07:23:29;;;;;;;4.50;4.10;;;16.10;92.40;;;;;;5035373;28;20625;-83
2021/10/03 07:26:19;;;;;;;4.23;3.87;;;16.10;94.10;;;;;;5034175;28;20987;-82
2021/10/03 07:29:06;;;;;;;4.07;3.77;;;16.10;93.90;;;;;;5035969;27;20614;-82
2021/10/03 07:31:55;;;;;;;4.20;3.90;;;16.10;93.90;;;;;;5036669;28;20677;-83
2021/10/03 07:34:42;;;;;;;7.03;3.90;;;16.10;95.30;;;;;;5038120;28;20618;-82
2021/10/03 07:37:29;;;;;;;8.47;3.97;;;16.20;93.70;;;;;;5038161;28;20659;-82
2021/10/03 07:40:16;;;;;;;4.10;3.80;;;16.30;92.80;;;;;;5036571;28;20623;-82
2021/10/03 07:43:00;;;;;;;5.27;3.73;;;16.40;92.20;;;;;;5034722;28;20645;-82
2021/10/03 07:45:37;;;;;;;4.53;4.03;;;16.50;91.90;;;;;;5034492;28;21286;-81
2021/10/03 07:48:24;;;;;;;4.83;3.63;;;16.60;94.90;;;;;;5042585;27;20962;-82
2021/10/03 07:51:10;;;;;;;4.00;3.60;;;16.70;94.70;;;;;;5035713;28;20724;-82
2021/10/03 07:53:58;;;;;;;4.33;3.83;;;16.80;92.10;;;;;;5042478;28;20621;-82
2021/10/03 07:56:45;;;;;;;3.87;3.50;;;16.90;91.20;;;;;;5028064;28;20733;-82
2021/10/03 07:59:32;;;;;;;4.03;3.63;;;17.00;91.20;;;;;;5032217;28;21037;-82
2021/10/03 08:02:19;;;;;;;4.97;4.07;;;17.00;91.90;;;;;;5027211;28;20678;-82
2021/10/03 08:05:07;;;;;;;4.33;3.33;;;17.10;91.80;;;;;;5031334;28;20614;-82
2021/10/03 08:08:00;;;;;;;4.00;3.60;;;17.10;91.70;;;;;;5033821;27;21273;-83
2021/10/03 08:10:50;;;;;;;3.90;3.13;;;17.20;91.80;;;;;;5034358;28;20667;-82
2021/10/03 08:13:37;;;;;;;4.53;4.13;;;17.20;91.40;;;;;;5036324;28;20618;-83
2021/10/03 08:16:25;;;;;;;5.30;4.07;;;17.30;90.80;;;;;;5033882;28;20622;-83
2021/10/03 08:19:16;;;;;;;4.10;3.80;;;17.30;94.90;;;;;;5032316;28;20765;-84
2021/10/03 08:22:13;;;;;;;5.87;4.07;;;17.50;90.70;;;;;;5034419;27;21317;-83
2021/10/03 08:27:59;;;;;;;4.60;3.17;;;17.80;89.20;;;;;;5033667;28;21207;-83
2021/10/03 08:30:45;;;;;;;3.33;3.00;;;17.80;90.00;;;;;;5037411;27;20726;-82
2021/10/03 08:33:32;;;;;;;3.70;3.07;;;17.80;90.50;;;;;;5034724;28;20622;-82
2021/10/03 08:36:19;;;;;;;3.43;3.13;;;17.80;90.20;;;;;;5027960;28;20659;-81
2021/10/03 08:39:06;;;;;;;4.37;3.23;;;17.90;92.30;;;;;;5032861;28;21032;-82
2021/10/03 08:41:55;;;;;;;3.50;3.13;;;17.90;92.40;;;;;;5034907;28;20650;-81
2021/10/03 08:44:38;;;;;;;3.10;2.80;;;18.00;90.60;;;;;;5031574;28;20626;-81
2021/10/03 08:47:26;;;;;;;3.83;3.30;;;18.00;93.00;;;;;;5031746;28;20603;-82
2021/10/03 08:50:16;;;;;;;4.43;4.03;;;18.10;91.20;;;;;;5032539;27;20631;-81
2021/10/03 08:53:03;;;;;;;9.83;3.97;;;18.20;90.70;;;;;;5034354;28;20622;-82
2021/10/03 08:55:56;;;;;;;3.80;3.50;;;18.20;90.40;;;;;;5034696;28;20710;-81
2021/10/03 08:58:40;;;;;;;3.20;2.90;;;18.30;88.50;;;;;;5036636;28;21024;-82
2021/10/03 09:01:48;;;;;;;3.13;2.83;;;18.20;90.00;;;;;;5036798;28;20738;-82
2021/10/03 09:04:37;;;;;;;3.27;2.80;;;18.40;87.70;;;;;;5037813;28;20641;-82
2021/10/03 09:07:24;;;;;;;3.33;3.03;;;18.30;90.00;;;;;;5033048;28;20650;-81
2021/10/03 09:10:11;;;;;;;3.27;2.63;;;18.20;90.10;;;;;;5035881;28;20722;-82
2021/10/03 09:12:58;;;;;;;5.37;3.50;;;18.10;92.00;;;;;;5037024;27;20624;-82
2021/10/03 09:15:46;;;;;;;3.67;3.27;;;18.20;91.90;;;;;;5036397;28;20634;-82
2021/10/03 09:18:40;;;;;;;3.00;2.80;;;18.20;90.10;;;;;;5036021;28;20640;-82
2021/10/03 09:21:39;;;;;;;3.00;2.77;;;18.40;87.60;;;;;;5026035;28;20691;-82
2021/10/03 09:24:26;;;;;;;4.60;3.50;;;18.40;90.20;;;;;;5029815;28;20615;-82
2021/10/03 09:27:13;;;;;;;2.97;2.60;;;18.40;89.50;;;;;;5032684;28;20776;-81
2021/10/03 09:30:07;;;;;;;2.87;2.67;;;18.50;88.40;;;;;;5030636;28;20644;-82
2021/10/03 09:32:56;;;;;;;3.60;3.30;;;18.70;86.60;;;;;;5033262;28;21063;-81
2021/10/03 09:35:55;;;;;;;2.57;2.37;;;18.80;85.70;;;;;;5026064;28;20680;-82
2021/10/03 09:38:48;;;;;;;2.97;2.70;;;18.80;85.40;;;;;;5026911;28;20715;-81
2021/10/03 09:41:38;;;;;;;3.10;2.90;;;19.00;84.90;;;;;;5031984;28;20985;-82
2021/10/03 09:44:25;;;;;;;3.33;3.03;;;19.00;84.30;;;;;;5035277;28;21278;-82
2021/10/03 09:47:13;;;;;;;3.67;2.97;;;18.90;84.70;;;;;;5032619;28;20723;-82
2021/10/03 09:49:58;;;;;;;3.10;2.70;;;19.00;85.90;;;;;;5035918;28;20612;-82
2021/10/03 09:52:47;;;;;;;3.90;3.50;;;19.10;84.70;;;;;;5034395;28;20612;-82
2021/10/03 09:55:34;;;;;;;3.93;3.10;;;19.00;84.60;;;;;;5034173;28;21156;-82
2021/10/03 09:58:21;;;;;;;3.00;2.70;;;18.90;86.30;;;;;;5033513;28;20711;-81
2021/10/03 10:01:08;;;;;;;2.50;2.30;;;18.80;88.80;;;;;;5033701;28;20712;-82
2021/10/03 10:03:56;;;;;;;3.50;3.20;;;18.80;87.00;;;;;;5035293;28;20692;-82
2021/10/03 10:06:44;;;;;;;2.70;2.40;;;18.70;86.80;;;;;;5034126;28;20617;-81
2021/10/03 10:09:34;;;;;;;3.30;3.10;;;18.70;88.30;;;;;;5033527;28;20599;-82
2021/10/03 10:12:24;;;;;;;3.97;3.30;;;18.70;88.60;;;;;;5034608;28;20615;-82
2021/10/03 10:15:37;;;;;;;2.93;2.73;;;18.80;89.80;;;;;;5033425;28;20638;-83
2021/10/03 10:18:25;;;;;;;5.20;3.57;;;19.00;86.80;;;;;;5031421;28;20611;-82
2021/10/03 10:21:21;;;;;;;4.60;3.03;;;19.10;88.60;;;;;;5027666;28;20614;-82
2021/10/03 10:24:38;;;;;;;3.53;3.23;;;19.10;90.60;;;;;;5031451;28;20615;-82
2021/10/03 10:28:01;;;;;;;4.87;2.97;;;20.00;90.50;;;;;;5022419;28;20699;-82
2021/10/03 10:31:10;;;;;;;5.13;3.20;;;19.20;88.10;;;;;;5030986;28;21210;-82
2021/10/03 10:38:18;;;;;;;3.73;3.43;;;19.20;91.20;;;;;;5044956;28;20692;-83
2021/10/03 10:41:39;;;;;;;2.93;2.70;;;19.20;91.20;;;;;;5046559;28;21249;-84
2021/10/03 10:44:45;;;;;;;3.17;2.97;;;19.30;90.00;;;;;;5036580;28;20729;-83
2021/10/03 10:48:20;;;;;;;3.33;3.10;;;19.40;90.10;;;;;;5031419;28;20623;-83
2021/10/03 10:51:18;;;;;;;3.90;3.60;;;19.60;87.80;;;;;;5033391;28;20706;-82
2021/10/03 10:54:15;;;;;;;3.37;3.17;;;19.60;91.80;;;;;;5047055;28;20734;-83
2021/10/03 10:57:09;;;;;;;3.93;3.17;;;19.50;91.10;;;;;;5033254;28;20619;-82
2021/10/03 11:00:18;;;;;;;3.10;2.90;;;19.60;90.50;;;;;;5022665;28;20658;-82
2021/10/03 11:03:06;;;;;;;4.70;3.60;;;19.60;89.30;;;;;;5024255;28;20658;-82
2021/10/03 11:05:54;;;;;;;3.00;2.70;;;19.70;88.80;;;;;;5031783;28;20695;-83
2021/10/03 11:09:02;;;;;;;3.50;3.00;;;19.70;89.90;;;;;;5029487;28;21128;-82
2021/10/03 11:12:13;;;;;;;2.90;2.70;;;19.70;89.10;;;;;;5035982;28;21340;-83
2021/10/03 11:15:22;;;;;;;3.10;2.80;;;19.70;90.30;;;;;;5036305;28;21020;-82
2021/10/03 11:18:09;;;;;;;3.13;2.83;;;19.50;92.10;;;;;;5033097;28;20611;-81
2021/10/03 11:20:58;;;;;;;3.07;2.87;;;19.60;90.10;;;;;;5038515;28;20672;-83
2021/10/03 11:23:45;;;;;;;3.87;3.57;;;19.90;85.70;;;;;;5026687;28;21005;-82
2021/10/03 11:26:45;;;;;;;3.47;3.27;;;19.70;91.00;;;;;;5028302;28;21298;-83
2021/10/03 11:29:33;;;;;;;4.13;3.40;;;19.70;90.80;;;;;;5027935;28;20641;-83
2021/10/03 11:32:20;;;;;;;3.10;2.90;;;19.80;91.10;;;;;;5028960;28;20735;-82
2021/10/03 11:35:11;;;;;;;3.00;2.80;;;19.90;90.50;;;;;;5028886;28;20764;-82
2021/10/03 11:38:02;;;;;;;2.93;2.73;;;20.00;89.60;;;;;;5027581;28;21184;-82
2021/10/03 11:40:49;;;;;;;3.60;3.40;;;20.00;90.30;;;;;;5034554;28;20643;-83
2021/10/03 11:43:36;;;;;;;3.27;3.03;;;20.00;90.50;;;;;;5032962;28;21142;-83
2021/10/03 11:46:23;;;;;;;3.90;3.60;;;20.00;91.00;;;;;;5035481;28;20663;-83
2021/10/03 11:49:09;;;;;;;3.17;2.87;;;20.10;89.70;;;;;;5040035;28;20612;-82
2021/10/03 11:51:57;;;;;;;3.50;3.20;;;20.10;90.40;;;;;;5041387;27;20731;-82
2021/10/03 11:54:47;;;;;;;3.20;3.00;;;20.00;93.00;;;;;;5036108;28;20629;-83
2021/10/03 11:57:38;;;;;;;3.03;2.73;;;20.00;91.60;;;;;;5032303;27;20648;-83
2021/10/03 12:00:26;;;;;;;3.53;3.23;;;20.10;89.80;;;;;;5034254;28;21309;-83
2021/10/03 12:03:15;;;;;;;3.20;2.90;;;20.30;89.80;;;;;;5032422;28;20664;-82
2021/10/03 12:06:18;;;;;;;3.30;3.00;;;20.30;88.10;;;;;;5035833;28;20620;-83
2021/10/03 12:09:11;;;;;;;3.20;3.00;;;20.50;87.30;;;;;;5037084;27;20634;-82
2021/10/03 12:12:01;;;;;;;3.10;2.80;;;20.50;85.70;;;;;;5037049;28;20625;-83
2021/10/03 12:14:48;;;;;;;3.70;3.40;;;20.50;87.10;;;;;;5034375;28;21019;-82
2021/10/03 12:17:47;;;;;;;3.20;3.00;;;20.50;87.00;;;;;;5035445;28;20709;-83
2021/10/03 12:20:57;;;;;;;3.37;3.07;;;20.50;87.30;;;;;;5027403;28;20985;-82
2021/10/03 12:24:00;;;;;;;4.33;3.30;;;20.80;86.00;;;;;;5036729;28;21310;-83
2021/10/03 12:26:41;;;;;;;3.70;3.40;;;20.70;88.40;;;;;;5026155;28;20653;-83
2021/10/03 12:29:29;;;;;;;4.50;2.80;;;20.80;89.00;;;;;;5047346;28;20612;-83
2021/10/03 12:32:15;;;;;;;4.00;2.73;;;20.80;89.10;;;;;;5047560;28;20989;-83
2021/10/03 12:35:04;;;;;;;4.80;3.20;;;20.80;85.70;;;;;;5056044;28;20717;-83
2021/10/03 12:37:51;;;;;;;5.73;3.50;;;20.90;86.50;;;;;;5023326;27;20738;-83
2021/10/03 12:40:38;;;;;;;3.03;2.80;;;21.00;85.40;;;;;;5034352;28;21281;-83
2021/10/03 12:43:25;;;;;;;2.60;2.40;;;21.00;85.70;;;;;;5037834;28;20670;-83
2021/10/03 12:46:13;;;;;;;5.30;3.47;;;21.10;85.30;;;;;;5036106;28;20630;-83
2021/10/03 12:49:00;;;;;;;3.13;2.83;;;21.10;93.30;;;;;;5041128;28;21050;-84
2021/10/03 12:51:47;;;;;;;3.00;2.80;;;21.20;90.10;;;;;;5038562;28;21072;-83
2021/10/03 12:54:31;;;;;;;2.50;2.30;;;21.50;89.00;;;;;;5038078;28;20673;-84
2021/10/03 12:57:19;;;;;;;2.97;2.70;;;21.70;86.60;;;;;;5028261;28;20624;-83
2021/10/03 13:00:07;;;;;;;5.07;3.50;;;21.60;90.60;;;;;;5044132;28;20718;-84
2021/10/03 13:02:55;;;;;;;8.87;4.30;;;21.50;91.30;;;;;;5043165;28;20710;-82
2021/10/03 13:05:42;;;;;;;4.00;3.60;;;21.40;90.70;;;;;;5027861;28;20616;-82
2021/10/03 13:08:29;;;;;;;3.50;3.20;;;21.30;91.00;;;;;;5034336;28;20709;-82
2021/10/03 13:11:17;;;;;;;3.37;2.90;;;21.30;90.80;;;;;;5027279;28;21058;-82
2021/10/03 13:14:04;;;;;;;3.97;3.30;;;21.20;90.10;;;;;;5027020;28;20621;-83
2021/10/03 13:16:51;;;;;;;5.20;3.70;;;21.20;91.60;;;;;;5046358;28;20623;-82
2021/10/03 13:19:39;;;;;;;4.70;3.00;;;21.10;91.30;;;;;;5046435;28;20978;-83
2021/10/03 13:22:26;;;;;;;3.43;3.13;;;20.90;91.60;;;;;;5046432;28;20657;-82
2021/10/03 13:25:14;;;;;;;2.60;2.40;;;20.80;92.40;;;;;;5046753;28;21220;-83
2021/10/03 13:28:00;;;;;;;3.13;2.93;;;20.70;91.40;;;;;;5043942;28;20741;-82
2021/10/03 13:30:47;;;;;;;3.77;3.20;;;20.70;93.00;;;;;;5035312;28;20633;-83
2021/10/03 13:33:34;;;;;;;4.47;3.87;;;20.80;92.80;;;;;;5046317;28;20614;-82
2021/10/03 13:36:24;;;;;;;3.67;2.83;;;20.70;91.90;;;;;;5045357;27;20723;-83
2021/10/03 13:39:10;;;;;;;4.10;3.53;;;20.70;90.00;;;;;;5038680;27;20622;-82
2021/10/03 13:41:57;;;;;;;4.60;3.07;;;20.80;92.90;;;;;;5034953;28;20694;-83
2021/10/03 13:44:44;;;;;;;3.33;2.83;;;20.80;91.60;;;;;;5031864;28;20737;-83
2021/10/03 13:47:32;;;;;;;3.30;3.10;;;20.70;92.10;;;;;;5036489;28;20611;-83
2021/10/03 13:50:19;;;;;;;3.77;3.40;;;20.50;93.20;;;;;;5033898;28;20716;-83
2021/10/03 13:53:07;;;;;;;3.23;2.93;;;20.50;94.50;;;;;;5045704;28;20992;-83
2021/10/03 13:55:54;;;;;;;3.40;3.10;;;20.40;93.90;;;;;;5042068;28;20637;-82
2021/10/03 13:58:41;;;;;;;3.50;2.80;;;20.40;91.70;;;;;;5025496;28;20650;-83
2021/10/03 14:01:28;;;;;;;3.87;3.57;;;20.40;93.30;;;;;;5037368;28;21464;-82
2021/10/03 14:04:15;;;;;;;3.70;3.40;;;20.30;95.20;;;;;;5036818;28;20772;-82
2021/10/03 14:07:02;;;;;;;5.73;3.57;;;20.30;94.70;;;;;;5031445;28;20203;-82
2021/10/03 14:09:50;;;;;;;4.30;3.30;;;20.30;93.00;;;;;;5034763;28;21199;-82
2021/10/03 14:12:38;;;;;;;3.27;2.80;;;20.30;91.10;;;;;;5028985;28;20710;-82
2021/10/03 14:15:12;;;;;;;3.63;3.33;;;20.40;92.50;;;;;;5029378;27;20630;-82
2021/10/03 14:17:48;;;;;;;4.23;3.50;;;20.40;91.00;;;;;;5032925;28;20624;-82
2021/10/03 14:20:33;;;;;;;4.63;3.60;;;20.40;93.30;;;;;;5036272;28;20713;-82
2021/10/03 14:23:20;;;;;;;3.00;2.73;;;20.20;92.60;;;;;;5040621;28;20668;-82
2021/10/03 14:26:08;;;;;;;3.43;3.23;;;20.10;94.30;;;;;;5035759;28;20662;-83
2021/10/03 14:28:55;;;;;;;4.10;3.80;;;20.00;95.00;;;;;;5029459;28;20731;-83
2021/10/03 14:31:42;;;;;;;3.73;3.20;;;20.10;93.10;;;;;;5031380;28;21117;-83
2021/10/03 14:34:29;;;;;;;3.43;3.13;;;20.00;93.90;;;;;;5034371;28;20624;-83